createdAt,value
2022-11-01T00:02:55.890Z,31.97
2022-11-01T00:07:59.519Z,34.90
2022-11-01T00:13:03.242Z,33.63
2022-11-01T00:18:06.641Z,29.23
2022-11-01T00:23:09.740Z,34.60
2022-11-01T00:28:13.011Z,32.07
2022-11-01T00:33:16.230Z,27.50
2022-11-01T00:38:20.344Z,29.60
2022-11-01T00:43:26.866Z,25.93
2022-11-01T00:48:30.279Z,26.07
2022-11-01T00:53:33.329Z,25.87
2022-11-01T00:58:36.550Z,25.30
2022-11-01T01:03:40.147Z,23.37
2022-11-01T01:08:43.639Z,23.00
2022-11-01T01:13:46.972Z,25.77
2022-11-01T01:18:50.400Z,23.27
2022-11-01T01:23:55.518Z,20.63
2022-11-01T01:28:58.779Z,19.67
2022-11-01T01:34:02.060Z,18.03
2022-11-01T01:39:05.542Z,19.93
2022-11-01T01:44:46.433Z,17.90
2022-11-01T01:50:15.469Z,18.37
2022-11-01T01:55:23.234Z,15.17
2022-11-01T02:00:27.514Z,16.33
2022-11-01T02:05:47.762Z,15.87
2022-11-01T02:10:51.569Z,16.37
2022-11-01T02:16:13.680Z,17.20
2022-11-01T02:21:57.507Z,15.27
2022-11-01T02:27:09.894Z,14.30
2022-11-01T02:32:29.790Z,13.70
2022-11-01T02:37:57.859Z,13.90
2022-11-01T02:43:05.820Z,14.53
2022-11-01T02:48:10.181Z,13.93
2022-11-01T02:53:14.261Z,13.97
2022-11-01T02:58:25.424Z,13.93
2022-11-01T03:03:31.797Z,13.87
2022-11-01T03:08:44.531Z,17.37
2022-11-01T03:14:01.659Z,16.57
2022-11-01T03:19:26.308Z,17.37
2022-11-01T03:24:33.992Z,15.83
2022-11-01T03:29:39.633Z,14.67
2022-11-01T03:34:43.717Z,14.80
2022-11-01T03:39:52.838Z,14.30
2022-11-01T03:45:00.820Z,13.87
2022-11-01T03:50:22.088Z,13.67
2022-11-01T03:55:26.064Z,15.23
2022-11-01T04:00:32.308Z,14.07
2022-11-01T04:05:37.271Z,14.67
2022-11-01T04:10:40.648Z,13.83
2022-11-01T04:16:02.467Z,15.13
2022-11-01T04:21:16.020Z,22.87
2022-11-01T04:26:21.808Z,14.90
2022-11-01T04:31:43.557Z,14.47
2022-11-01T04:36:46.824Z,15.57
2022-11-01T04:41:50.129Z,14.70
2022-11-01T04:46:53.302Z,14.70
2022-11-01T04:51:56.389Z,15.20
2022-11-01T04:57:00.008Z,15.80
2022-11-01T05:02:03.556Z,16.27
2022-11-01T05:07:07.012Z,14.43
2022-11-01T05:12:10.449Z,16.00
2022-11-01T05:17:13.688Z,14.93
2022-11-01T05:22:18.401Z,16.60
2022-11-01T05:27:21.815Z,15.60
2022-11-01T05:32:25.009Z,15.90
2022-11-01T05:37:28.431Z,16.10
2022-11-01T05:42:31.819Z,13.43
2022-11-01T05:47:35.279Z,15.27
2022-11-01T05:52:38.929Z,14.27
2022-11-01T05:57:42.468Z,14.63
2022-11-01T06:02:46.345Z,14.33
2022-11-01T06:07:49.752Z,16.17
2022-11-01T06:12:52.800Z,16.07
2022-11-01T06:17:58.424Z,16.33
2022-11-01T06:23:11.581Z,14.87
2022-11-01T06:28:15.483Z,15.87
2022-11-01T06:33:21.960Z,17.93
2022-11-01T06:38:25.013Z,17.50
2022-11-01T06:43:28.530Z,17.80
2022-11-01T06:48:37.460Z,18.90
2022-11-01T06:53:41.201Z,20.53
2022-11-01T06:58:52.350Z,20.30
2022-11-01T07:03:59.881Z,20.47
2022-11-01T07:09:09.206Z,19.90
2022-11-01T07:14:24.029Z,20.00
2022-11-01T07:19:34.010Z,20.07
2022-11-01T07:25:02.000Z,18.93
2022-11-01T07:30:17.381Z,23.17
2022-11-01T07:36:20.400Z,20.40
2022-11-01T07:48:24.313Z,19.20
2022-11-01T07:53:49.512Z,19.77
2022-11-01T07:59:15.885Z,19.40
2022-11-01T08:04:30.009Z,18.40
2022-11-01T08:09:39.703Z,18.30
2022-11-01T08:14:44.229Z,19.57
2022-11-01T08:19:47.653Z,18.93
2022-11-01T08:24:52.331Z,20.30
2022-11-01T08:29:55.739Z,19.93
2022-11-01T08:34:59.340Z,21.77
2022-11-01T08:40:03.781Z,19.27
2022-11-01T08:45:12.850Z,18.40
2022-11-01T08:50:18.579Z,20.10
2022-11-01T08:55:23.546Z,18.07
2022-11-01T09:00:27.550Z,18.97
2022-11-01T09:05:32.070Z,18.83
2022-11-01T09:10:43.483Z,16.90
2022-11-01T09:21:29.108Z,17.03
2022-11-01T09:26:40.652Z,17.23
2022-11-01T09:31:46.491Z,17.40
2022-11-01T09:36:53.594Z,18.30
2022-11-01T09:42:15.649Z,18.33
2022-11-01T09:47:34.451Z,18.07
2022-11-01T09:52:58.929Z,17.63
2022-11-01T09:59:14.097Z,16.80
2022-11-01T10:04:46.180Z,17.97
2022-11-01T10:10:29.915Z,15.13
2022-11-01T10:15:50.614Z,17.50
2022-11-01T10:20:57.871Z,17.33
2022-11-01T10:26:01.079Z,18.43
2022-11-01T10:31:11.663Z,18.27
2022-11-01T10:36:20.447Z,17.37
2022-11-01T10:41:48.814Z,18.33
2022-11-01T10:46:53.789Z,20.47
2022-11-01T10:52:02.718Z,21.07
2022-11-01T10:57:12.008Z,26.03
2022-11-01T11:02:42.946Z,21.43
2022-11-01T11:07:46.512Z,21.27
2022-11-01T11:12:54.333Z,23.00
2022-11-01T11:18:00.660Z,23.23
2022-11-01T11:23:04.814Z,25.60
2022-11-01T11:28:27.242Z,23.77
2022-11-01T11:33:30.809Z,26.23
2022-11-01T11:38:42.462Z,25.00
2022-11-01T11:43:45.961Z,24.63
2022-11-01T11:48:54.628Z,24.43
2022-11-01T11:54:04.511Z,25.37
2022-11-01T11:59:17.510Z,26.93
2022-11-01T12:04:24.139Z,27.40
2022-11-01T12:09:44.159Z,29.80
2022-11-01T12:14:47.652Z,29.40
2022-11-01T12:20:00.319Z,28.30
2022-11-01T12:25:07.519Z,28.77
2022-11-01T12:30:20.724Z,27.83
2022-11-01T12:35:26.207Z,29.60
2022-11-01T12:40:37.378Z,31.43
2022-11-01T12:45:48.249Z,30.20
2022-11-01T12:51:04.389Z,29.03
2022-11-01T12:56:08.631Z,31.67
2022-11-01T13:01:36.442Z,31.83
2022-11-01T13:07:09.669Z,30.17
2022-11-01T13:12:39.079Z,34.30
2022-11-01T13:18:02.749Z,32.33
2022-11-01T13:23:20.709Z,31.97
2022-11-01T13:28:40.059Z,34.60
2022-11-01T13:34:07.591Z,31.77
2022-11-01T13:39:17.439Z,35.37
2022-11-01T13:44:25.820Z,35.07
2022-11-01T13:49:55.556Z,33.63
2022-11-01T13:55:28.980Z,34.97
2022-11-01T14:00:36.969Z,37.03
2022-11-01T14:05:40.882Z,38.07
2022-11-01T14:10:49.157Z,37.87
2022-11-01T14:15:55.480Z,37.40
2022-11-01T14:20:58.969Z,43.30
2022-11-01T14:26:21.188Z,41.67
2022-11-01T14:31:28.080Z,43.57
2022-11-01T14:36:35.623Z,44.23
2022-11-01T14:41:41.968Z,43.57
2022-11-01T14:46:49.699Z,46.57
2022-11-01T14:51:56.079Z,51.20
2022-11-01T14:57:00.059Z,38.17
2022-11-01T15:02:07.609Z,42.53
2022-11-01T15:07:31.237Z,45.43
2022-11-01T15:12:48.171Z,43.27
2022-11-01T15:17:58.093Z,43.13
2022-11-01T15:23:07.299Z,44.13
2022-11-01T15:28:24.222Z,40.77
2022-11-01T15:33:32.749Z,48.53
2022-11-01T15:38:54.316Z,46.17
2022-11-01T15:44:00.374Z,45.50
2022-11-01T15:49:22.389Z,42.20
2022-11-01T15:54:54.541Z,64.20
2022-11-01T16:00:19.075Z,51.37
2022-11-01T16:05:27.879Z,45.53
2022-11-01T16:10:31.482Z,47.93
2022-11-01T16:15:35.902Z,50.13
2022-11-01T16:20:47.791Z,48.77
2022-11-01T16:26:07.035Z,50.53
2022-11-01T16:31:26.339Z,51.97
2022-11-01T16:36:45.029Z,52.30
2022-11-01T16:41:49.451Z,53.77
2022-11-01T16:46:55.570Z,52.83
2022-11-01T16:51:59.421Z,55.90
2022-11-01T16:57:04.449Z,53.77
2022-11-01T17:02:25.258Z,51.40
2022-11-01T17:07:29.171Z,48.60
2022-11-01T17:12:32.802Z,48.60
2022-11-01T17:17:36.418Z,47.07
2022-11-01T17:22:40.999Z,48.83
2022-11-01T17:27:45.720Z,52.27
2022-11-01T17:32:51.080Z,49.57
2022-11-01T17:37:56.461Z,54.13
2022-11-01T17:43:00.359Z,54.50
2022-11-01T17:48:20.030Z,60.80
2022-11-01T17:53:23.820Z,59.63
2022-11-01T17:58:27.994Z,57.60
2022-11-01T18:03:34.180Z,62.63
2022-11-01T18:08:48.380Z,62.33
2022-11-01T18:14:18.244Z,60.87
2022-11-01T18:19:36.272Z,58.30
2022-11-01T18:25:21.483Z,56.50
2022-11-01T18:30:26.670Z,54.37
2022-11-01T18:36:08.690Z,55.87
2022-11-01T18:41:17.918Z,58.73
2022-11-01T18:46:27.698Z,56.60
2022-11-01T18:51:36.861Z,55.47
2022-11-01T18:56:45.271Z,57.27
2022-11-01T19:07:23.229Z,53.47
2022-11-01T19:12:45.100Z,54.53
2022-11-01T19:18:00.611Z,54.77
2022-11-01T19:23:16.415Z,55.77
2022-11-01T19:28:26.731Z,54.13
2022-11-01T19:33:41.073Z,53.80
2022-11-01T19:38:46.450Z,54.03
2022-11-01T19:43:58.128Z,54.30
2022-11-01T19:49:05.569Z,51.53
2022-11-01T19:54:13.476Z,52.27
2022-11-01T19:59:18.380Z,53.03
2022-11-01T20:04:33.463Z,51.83
2022-11-01T20:09:43.175Z,51.63
2022-11-01T20:15:01.037Z,54.33
2022-11-01T20:20:11.870Z,50.50
2022-11-01T20:25:18.243Z,55.03
2022-11-01T20:30:22.431Z,53.10
2022-11-01T20:35:29.199Z,51.47
2022-11-01T20:40:33.737Z,48.93
2022-11-01T20:45:38.952Z,52.90
2022-11-01T20:50:43.590Z,48.37
2022-11-01T20:55:48.564Z,53.20
2022-11-01T21:00:51.919Z,50.27
2022-11-01T21:05:56.107Z,53.17
2022-11-01T21:11:04.238Z,50.93
2022-11-01T21:16:22.609Z,54.43
2022-11-01T21:21:34.814Z,49.90
2022-11-01T21:26:52.092Z,52.17
2022-11-01T21:31:58.696Z,58.20
2022-11-01T21:37:02.477Z,57.03
2022-11-01T21:42:31.631Z,58.60
2022-11-01T21:47:35.457Z,58.27
2022-11-01T21:52:38.923Z,57.90
2022-11-01T21:57:41.919Z,58.37
2022-11-01T22:02:46.109Z,59.77
2022-11-01T22:07:49.310Z,58.20
2022-11-01T22:12:52.327Z,59.67
2022-11-01T22:17:57.450Z,58.00
2022-11-01T22:23:01.712Z,56.60
2022-11-01T22:28:06.874Z,56.00
2022-11-01T22:33:12.249Z,52.93
2022-11-01T22:38:23.069Z,52.67
2022-11-01T22:43:26.510Z,52.87
2022-11-01T22:48:31.339Z,54.87
2022-11-01T22:53:34.557Z,52.53
2022-11-01T22:58:39.285Z,54.97
2022-11-01T23:03:42.739Z,51.00
2022-11-01T23:08:45.990Z,55.17
2022-11-01T23:14:08.570Z,51.73
2022-11-01T23:19:15.043Z,52.43
2022-11-01T23:24:18.570Z,53.10
2022-11-01T23:29:21.971Z,53.50
2022-11-01T23:34:26.116Z,55.10
2022-11-01T23:39:35.034Z,54.13
2022-11-01T23:44:39.573Z,51.40
2022-11-01T23:49:44.424Z,51.57
2022-11-01T23:54:48.165Z,52.57
2022-11-01T23:59:52.783Z,51.83
